Tiempo atmosférico en la estación meteorológica de Huesca Aeropuerto, Huesca (541 m.)



Fecha
DESCASC
Temp. máxima en grados centígrados (hora)
DESCASC
Temp. mínima en grados centígrados (hora)
DESCASC
Temp. media en grados centígrados
DESCASC
Racha de viento máxima en m/sg (hora)
DESCASC
Velocidad máxima media en intervalos de 10 minutos(hora)
DESCASC
Precipitaciones diarias en mm
DESCASC
Precipitaciones de 00:00 a 06:00 en mm
DESCASC
Precipitaciones de 06:00 a 12:00 en mm
DESCASC
Precipitaciones de 12:00 a 18:00 en mm
DESCASC
Precipitaciones de 18:00 a 24:00 en mm
DESCASC
16-01-2020 12 (14:00) 2.2 (05:10) 7.1 5.28 (23:00) 3.33 (23:10) 0 0 0 0 0
15-01-2020 8.8 (16:30) -0.1 (05:50) 4.4 3.89 (23:30) 2.5 (23:30) 0 0 0 0 0
14-01-2020 6.8 (15:10) -2 (08:30) 2.4 3.89 (13:40) 2.22 (13:40) 0 0 0 0 0
13-01-2020 3.7 (16:20) -2.9 (08:50) 0.4 3.33 (23:59) 2.22 (23:59) 0 0 0 0 0
12-01-2020 3.6 (16:30) -2 (-00:0) 0.8 3.61 (17:50) 2.5 (17:50) 0 0 0 0 0
11-01-2020 8.5 (14:40) -1.7 (-00:0) 3.4 5.56 (15:30) 2.5 (14:30) 0 0 0 0 0
10-01-2020 11.7 (14:40) 1.7 (00:00) 6.7 7.22 (07:40) 3.61 (09:30) 0 0 0 0 0
09-01-2020 8.7 (15:00) 0.4 (00:00) 4.5 6.67 (14:40) 5 (16:00) 0 0 0 0 0
08-01-2020 7 (16:20) -0.7 (-00:0) 3.2 6.39 (16:10) 4.17 (16:20) 0 0 0 0 0
07-01-2020 2.2 (15:50) 0.4 (00:00) 1.3 4.17 (20:50) 2.78 (20:50) 0 0 0 0 0
06-01-2020 4.7 (15:10) -1.1 (-00:0) 1.8 4.17 (16:50) 2.78 (09:20) 0 0 0 0 0
05-01-2020 4.4 (16:00) 0 (00:00) 2.2 3.89 (22:10) 2.5 (22:10) 0 0 0 0 0
04-01-2020 5.4 (16:10) 0.6 (00:00) 3 3.33 (00:50) 1.67 (22:20) 0 0 0 0 0
03-01-2020 1.7 (22:30) -0.6 (-00:0) 0.6 4.72 (11:00) 2.5 (08:50) 0 0 0 0 0
02-01-2020 1.8 (16:00) -2.1 (-00:0) -0.1 4.17 (12:10) 2.5 (12:20) 0 0 0 0 0
01-01-2020 1.5 (16:00) -0.1 (00:00) 0.7 3.33 (01:40) 1.67 (02:00) 0 0 0 0 0
31-12-2019 3.3 (15:00) 1.2 (00:00) 2.3 3.06 (23:59) 1.67 (11:50) 0 0 0 0 0
30-12-2019 -- (--) -- (--) -- -- (--) -- (--) -- 0 0 0 --
29-12-2019 3.4 (15:40) -2.8 (-00:0) 0.3 3.89 (12:00) 2.5 (02:30) 0 0 0 0 0
28-12-2019 4.3 (15:40) -1.5 (-00:0) 1.4 3.89 (08:00) 2.78 (11:10) 0 0 0 0 0
27-12-2019 6.9 (15:00) -1.4 (-00:0) 2.8 3.61 (00:30) 2.5 (00:30) 0 0 0 0 0
26-12-2019 12.7 (15:10) 1.7 (00:00) 7.2 8.61 (14:40) 3.06 (14:40) 0 0 0 0 0
25-12-2019 12.3 (14:10) 4.4 (00:00) 8.4 2.78 (14:10) 1.67 (04:20) 0 0 0 0 0
24-12-2019 14.1 (15:00) 5.2 (00:00) 9.7 7.22 (12:30) 3.33 (06:30) 0 0 0 0 0
23-12-2019 11.9 (14:20) 4.3 (00:00) 8.1 9.17 (15:50) 3.89 (13:50) 0 0 0 0 0
22-12-2019 10.9 (14:20) 7.3 (00:00) 9.1 13.89 (03:30) 5.83 (03:50) 1.2 0 0 1.2 0
21-12-2019 9.9 (20:50) 7 (00:00) 8.4 12.78 (19:50) 5.83 (19:40) 14.2 0.2 1 10.8 2.2
20-12-2019 10.9 (11:40) 7.8 (00:00) 9.3 12.5 (01:20) 8.06 (01:10) 17.6 7.6 5 1.6 3.4

Gráficas

Temp. máximas Temp. mínimas Temp. medias Precipitaciones Rachas de viento máximas Velocidades máximas media en intervalos de 10 minutos

Datos horarios

Fecha y hora oficial Temperatura (ºC) Velocidad del viento (km/h) Dirección del viento Racha (km/h) Dirección de racha Precipitación (mm) Presión (hPa) Tendencia (hPa) Humedad (%)
2020-01-18 23:00:00 5.9 17 Este 25 Este 0 953.2 -2 86
2020-01-18 22:00:00 5.5 18 Este 27 Este 0 953.7 -2.4 88
2020-01-18 21:00:00 5.3 12 Este 22 Sudeste 0 954.8 -1.2 91
2020-01-18 20:00:00 5.5 12 Este 18 Este 0.4 955.2 -1.4 90
2020-01-18 19:00:00 6.2 9 Este 15 Este 0.4 956.1 -1.2 85
2020-01-18 18:00:00 7.2 11 Este 17 Este 0 956 -2.1 74
2020-01-18 17:00:00 8.2 10 Este 18 Sudeste 0 956.6 -2.9 66
2020-01-18 16:00:00 8.8 12 Sudeste 20 Este 0 957.3 -3.7 61
2020-01-18 15:00:00 9.5 13 Sudeste 19 Sudeste 0 958.1 -4.6 58
2020-01-18 14:00:00 9.5 10 Sudeste 19 Sudeste 0 959.5 -3.3 53
2020-01-18 13:00:00 8 12 Este 18 Este 0 961 -1.8 60
2020-01-18 12:00:00 5.5 10 Este 18 Nordeste 0 962.7 -0.5 72
2020-01-18 11:00:00 3.6 9 Este 16 Sudeste 0 962.8 -0.6 79
2020-01-18 10:00:00 2.4 13 Sudeste 19 Sudeste 0 962.8 -1.1 84
2020-01-18 09:00:00 2.4 11 Este 15 Este 0 963.2 -0.1 82
2020-01-18 08:00:00 2.5 6 Nordeste 11 Norte 0 963.4 0.2 84
2020-01-18 07:00:00 2.9 5 Oeste 10 Oeste 0 963.9 0.4 81
2020-01-18 06:00:00 2.5 4 Noroeste 9 Oeste 0 963.3 -0.3 81
2020-01-18 05:00:00 2.8 4 Norte 10 Noroeste 0 963.2 -0.4 80
2020-01-18 04:00:00 2.4 4 Noroeste 11 Oeste 0 963.5 -0.7 82
2020-01-18 03:00:00 2.2 6 Noroeste 10 Oeste 0 963.6 -0.4 82
2020-01-18 02:00:00 2.4 4 Oeste 13 Noroeste 0 963.6 -0.9 80
2020-01-18 01:00:00 2.9 4 Sudoeste 18 Norte 0 964.2 -0.1 78
2020-01-18 00:00:00 3.8 5 Noroeste 24 Noroeste 0 964 0.2 75
2020-01-17 23:00:00 3.3 3 Oeste 15 Sudoeste 0 964.5 0.8 76
2020-01-17 22:00:00 5.4 6 Noroeste 17 Norte 0 964.3 0.8 63
2020-01-17 21:00:00 6 9 Norte 24 Noroeste 0 963.8 1.4 66
2020-01-17 20:00:00 5.7 7 Noroeste 20 Norte 0 963.7 1.9 70
2020-01-17 19:00:00 6.5 8 Noroeste 24 Noroeste 0 963.5 2.5 64
2020-01-17 18:00:00 7.5 11 Norte 27 Noroeste 0 962.4 1.6 65
2020-01-17 17:00:00 9.4 10 Noroeste 40 Noroeste 0 961.8 1.2 59
2020-01-17 16:00:00 10.3 12 Noroeste 35 Noroeste 0 961 -0.3 59
2020-01-17 15:00:00 9.4 14 Noroeste 42 Oeste 0.4 960.8 -0.8 74
2020-01-17 14:00:00 12.3 12 Oeste 35 Oeste 0 960.6 -0.9 64
2020-01-17 13:00:00 11.1 9 Oeste 26 Oeste 0 961.3 0.4 75
2020-01-17 12:00:00 9.7 6 Oeste 17 Oeste 0 961.6 1.1 85
2020-01-17 11:00:00 7.8 5 Oeste 11 Sudoeste 0 961.5 1.5 91
2020-01-17 10:00:00 6.3 4 Noroeste 9 Noroeste 0 960.9 1 95
2020-01-17 09:00:00 5.1 3 Oeste 5 Oeste 0 960.5 1 97
2020-01-17 08:00:00 6 4 Noroeste 6 Sudeste 0 960 0.1 93
2020-01-17 07:00:00 6.3 6 Este 11 Este 0 959.9 0 94
2020-01-17 06:00:00 6.3 6 Este 12 Nordeste 0 959.5 -0.6 94
2020-01-17 05:00:00 6.1 7 Nordeste 10 Este 0.2 959.9 0 95
2020-01-17 04:00:00 6.3 5 Este 13 Este 0 959.9 -0.1 93
2020-01-17 03:00:00 6.5 10 Este 18 Este 0 960.1 -0.1 89
2020-01-17 02:00:00 6.1 13 Sudeste 18 Este 0 959.9 -0.3 89
2020-01-17 01:00:00 6.9 13 Este 18 Este 0 960 -0.4 88
2020-01-17 00:00:00 6.8 11 Este 19 Este 0 960.2 -0.2 88
2020-01-16 23:00:00 6.6 12 Este 19 Este 0 960.2 -0.1 90
2020-01-16 22:00:00 6.2 8 Nordeste 15 Este 0 960.4 0.6 90
2020-01-16 21:00:00 6 10 Este 13 Este 0 960.4 1 91
2020-01-16 20:00:00 6.8 9 Este 13 Este 0 960.3 0.7 89
2020-01-16 19:00:00 8 6 Este 12 Sudeste 0 959.8 -0.1 85
2020-01-16 18:00:00 9.7 7 Sudeste 14 Sudeste 0 959.4 -0.7 80
2020-01-16 17:00:00 10.5 8 Sudeste 11 Sudeste 0 959.6 -1 78
2020-01-16 16:00:00 10.6 3 Sur 9 Oeste 0 959.9 -1.4 78
2020-01-16 15:00:00 10.8 4 Oeste 9 Oeste 0 960.1 -2.1 77
2020-01-16 14:00:00 12 4 Sur 11 Sudeste 0 960.6 -1.9 72
2020-01-16 13:00:00 10.3 9 Sudeste 13 Sudeste 0 961.3 -0.9 73
2020-01-16 12:00:00 7.6 4 Sudoeste 10 Oeste 0 962.2 0 87
2020-01-16 11:00:00 6 2 Sur 13 Oeste 0 962.5 0.4 90
2020-01-16 10:00:00 5.9 5 Este 10 Nordeste 0 962.2 0.7 86
2020-01-16 09:00:00 3.1 3 Noroeste 10 Nordeste 0 962.2 0.9 92
2020-01-16 08:00:00 2.9 4 Norte 11 Este 0 962.1 0.6 92
2020-01-16 07:00:00 3.1 10 Este 15 Este 0 961.5 0.2 91
2020-01-16 06:00:00 3 10 Nordeste 13 Nordeste 0 961.3 -0.1 94
2020-01-16 05:00:00 2.4 5 Este 7 Nordeste 0 961.5 0.3 94
2020-01-16 04:00:00 3.5 4 Nordeste 11 Nordeste 0 961.3 -0.2 94
2020-01-16 03:00:00 3.2 5 Nordeste 10 Nordeste 0 961.4 0.2 93
2020-01-16 02:00:00 3.3 6 Este 11 Este 0 961.2 0 95
2020-01-16 01:00:00 2.9 6 Este 8 Nordeste 0 961.5 0.8 94
2020-01-16 00:00:00 3.3 6 Este 14 Nordeste 0 961.2 0.8 93
2020-01-15 23:00:00 3.8 4 Nordeste 8 Este 0 961.2 1 88
2020-01-15 22:00:00 4.5 3 Sur 12 Oeste 0 960.7 1.2 88
2020-01-15 21:00:00 4.4 3 Noroeste 8 Oeste 0 960.4 1.6 93
2020-01-15 20:00:00 4.8 7 Noroeste 9 Oeste 0 960.2 2 89
2020-01-15 19:00:00 5.7 5 Oeste 9 Oeste 0 959.5 1.5 87
2020-01-15 18:00:00 6.2 3 Noroeste 8 Noroeste 0 958.8 0.9 85
2020-01-15 17:00:00 8.1 4 Oeste 12 Noroeste 0 958.2 0.1 78
2020-01-15 16:00:00 8.5 6 Oeste 12 Noroeste 0 958 -0.7 72
2020-01-15 15:00:00 7.3 3 Noroeste 9 Oeste 0 957.9 -1.2 77
2020-01-15 14:00:00 7.8 5 Sudoeste 8 Oeste 0 958.1 -0.9 73
2020-01-15 13:00:00 6.9 4 Sudoeste 9 Noroeste 0 958.7 0.5 78
2020-01-15 12:00:00 6.4 3 Sur 6 Este 0 959.1 1.6 79
2020-01-15 11:00:00 3.1 3 Sudeste 12 Noroeste 0 959 1.9 89
2020-01-15 10:00:00 1 3 Oeste 7 Sudeste 0 958.2 1.4 88
2020-01-15 09:00:00 0.7 4 Sur 7 Este 0 957.5 1.3 88
2020-01-15 08:00:00 1.4 5 Norte 12 Nordeste 0 957.1 0.6 88
2020-01-15 07:00:00 0.4 6 Nordeste 10 Nordeste 0 956.8 0.3 93
2020-01-15 06:00:00 0.1 6 Este 10 Este 0 956.2 -0.3 96
2020-01-15 05:00:00 1.1 4 Oeste 10 Sudoeste 0 956.5 0.1 92
2020-01-15 04:00:00 0.9 2 Sudeste 7 Oeste 0 956.5 0 94
2020-01-15 03:00:00 1.6 5 Sudoeste 9 Sudoeste 0 956.5 -0.3 91
2020-01-15 02:00:00 1.5 2 Norte 7 Nordeste 0 956.4 -0.2 91
2020-01-15 01:00:00 1 0 Calma 7 Este 0 956.5 0 93
2020-01-15 00:00:00 0.4 6 Este 7 Este 0 956.8 0.5 91
2020-01-14 23:00:00 0.6 5 Nordeste 6 Nordeste 0 956.6 0.5 94
2020-01-14 22:00:00 1.4 3 Oeste 7 Sudoeste 0 956.5 0.5 93
2020-01-14 21:00:00 1.3 3 Nordeste 9 Sudoeste 0 956.3 0.9 93
2020-01-14 20:00:00 2.3 3 Este 10 Nordeste 0 956.1 0.9 87
2020-01-14 19:00:00 2.7 6 Nordeste 9 Nordeste 0 956 0.8 85
2020-01-14 18:00:00 2.6 4 Noroeste 8 Nordeste 0 955.4 0.2 87
2020-01-14 17:00:00 5.7 2 Noroeste 5 Sudoeste 0 955.2 -0.4 84
2020-01-14 16:00:00 6.5 3 Oeste 9 Sudoeste 0 955.2 -1 79
2020-01-14 15:00:00 6.7 4 Sur 12 Sudoeste 0 955.2 -1.7 75
2020-01-14 14:00:00 6 8 Oeste 14 Sudoeste 0 955.6 -1.2 75
2020-01-14 13:00:00 5.9 4 Sudoeste 9 Sudoeste 0 956.2 -0.1 74
2020-01-14 12:00:00 3.9 4 Noroeste 7 Oeste 0 956.9 1 84
2020-01-14 11:00:00 2.4 3 Noroeste 7 Noroeste 0 956.8 1.2 85
2020-01-14 10:00:00 1.3 4 Noroeste 6 Noroeste 0 956.3 1.1 90
2020-01-14 09:00:00 -1.6 0 Calma 5 Este 0 955.9 0.7 97
2020-01-14 08:00:00 -1.7 4 Este 6 Sudeste 0 955.6 0.7 96
2020-01-14 07:00:00 -1.3 3 Nordeste 7 Oeste 0 955.2 -0.2 96
2020-01-14 06:00:00 -0.6 3 Oeste 8 Sudoeste 0 955.2 -0.1 96
2020-01-14 05:00:00 -1 5 Este 7 Nordeste 0 954.9 -0.7 95
2020-01-14 04:00:00 -0.4 3 Noroeste 7 Noroeste 0 955.4 -0.8 97
2020-01-14 03:00:00 -0.5 3 Este 6 Nordeste 0 955.3 -0.8 96
2020-01-14 02:00:00 -0.1 4 Este 8 Nordeste 0 955.6 -0.8 100
2020-01-14 01:00:00 -0.6 3 Este 11 Este 0 956.2 0.1 99
2020-01-14 00:00:00 -0.4 8 Este 12 Este 0 956.1 -0.2 100
2020-01-13 23:00:00 0.1 6 Nordeste 9 Nordeste 0 956.4 0.2 100
2020-01-13 22:00:00 -0.5 6 Este 7 Este 0 956.1 -0.1 100
2020-01-13 21:00:00 -0.5 5 Este 10 Este 0 956.3 -0.2 100
2020-01-13 20:00:00 -0.3 6 Este 9 Este 0 956.2 -0.5 99
2020-01-13 19:00:00 0.2 6 Este 7 Este 0 956.2 -0.1 98
2020-01-13 18:00:00 1.1 4 Noroeste 8 Noroeste 0 956.5 -0.4 97
2020-01-13 17:00:00 3 3 Noroeste 8 Noroeste 0 956.7 -0.7 95
2020-01-13 16:00:00 3.1 4 Sudeste 8 Noroeste 0 956.3 -2.2 95
2020-01-13 15:00:00 2.9 3 Oeste 10 Oeste 0 956.9 -2.5 95
2020-01-13 14:00:00 3.2 2 Sudeste 9 Oeste 0 957.4 -2.2 95
2020-01-13 13:00:00 0 5 Oeste 9 Oeste 0 958.5 -0.9 98
2020-01-13 12:00:00 2.6 3 Sur 6 Sudeste 0 959.4 0 91
2020-01-13 11:00:00 1.4 3 Este 6 Nordeste 0 959.6 0.2 94
2020-01-13 10:00:00 -0.8 3 Este 7 Este 0 959.4 -0.2 100
2020-01-13 09:00:00 -2.6 4 Nordeste 6 Nordeste 0 959.4 -0.3 99
2020-01-13 08:00:00 -2.5 0 Calma 5 Sudoeste 0 959.4 -0.7 98
2020-01-13 07:00:00 -1.6 3 Nordeste 5 Este 0 959.6 -1.2 100
2020-01-13 06:00:00 -1.6 3 Este 5 Este 0 959.7 -1.5 100
2020-01-13 05:00:00 -1.7 3 Este 5 Este 0 960.1 -1.7 100
2020-01-13 04:00:00 -1.2 3 Oeste 4 Oeste 0 960.8 -1.4 100
2020-01-13 03:00:00 -1 4 Noroeste 8 Noroeste 0 961.2 -1.5 100
2020-01-13 02:00:00 -1.5 4 Noroeste 7 Noroeste 0 961.8 -1.2 100
2020-01-13 01:00:00 -1.7 2 Noroeste 7 Norte 0 962.2 -1 99
2020-01-13 00:00:00 -1.3 4 Norte 9 Nordeste 0 962.7 -0.6 100
2020-01-12 23:00:00 -1.5 7 Nordeste 8 Nordeste 0 963 -0.4 100
2020-01-12 22:00:00 -1.5 4 Oeste 9 Noroeste 0 963.2 -0.2 100
2020-01-12 21:00:00 -0.8 5 Nordeste 9 Nordeste 0 963.3 0.4 100
2020-01-12 20:00:00 -0.9 6 Nordeste 10 Nordeste 0 963.4 0.5 100
2020-01-12 19:00:00 0.1 4 Este 9 Sudeste 0 963.4 0.8 99
2020-01-12 18:00:00 1.6 4 Sudeste 13 Sudeste 0 962.9 0.3 96
2020-01-12 17:00:00 3.4 4 Sur 12 Sur 0 962.9 0 92
2020-01-12 16:00:00 2.9 4 Sudeste 8 Sudeste 0 962.6 -1.3 98
2020-01-12 15:00:00 2.5 6 Sudoeste 11 Oeste 0 962.6 -2 96
2020-01-12 14:00:00 3.3 5 Oeste 10 Sudoeste 0 962.9 -1.9 96
2020-01-12 13:00:00 2.3 2 Nordeste 7 Este 0 963.9 -0.1 99
2020-01-12 12:00:00 1.7 4 Sudeste 11 Sudeste 0 964.6 1.2 100
2020-01-12 11:00:00 0.4 2 Noroeste 7 Sudeste 0 964.8 1.6 100
2020-01-12 10:00:00 0 5 Este 9 Este 0 964 1 100
2020-01-12 09:00:00 -0.9 4 Este 8 Este 0 963.4 0.8 100
2020-01-12 08:00:00 -1 5 Este 8 Nordeste 0 963.2 0.6 100
2020-01-12 07:00:00 -1.2 5 Este 7 Este 0 963 0.1 99
2020-01-12 06:00:00 -0.3 0 Calma 5 Sur 0 962.6 -0.4 100
2020-01-12 05:00:00 -0.8 0 Calma 5 Este 0 962.6 -0.5 99
2020-01-12 04:00:00 -0.6 2 Nordeste 6 Este 0 962.9 -0.3 98
2020-01-12 03:00:00 -0.4 5 Nordeste 8 Nordeste 0 963 -0.5 96
2020-01-12 02:00:00 -0.2 4 Nordeste 7 Este 0 963.1 -0.6 95
2020-01-12 01:00:00 0 5 Este 8 Este 0 963.2 -0.5 95
2020-01-12 00:00:00 0.7 4 Este 6 Este 0 963.5 -0.2 98
2020-01-11 23:00:00 0.8 3 Nordeste 5 Este 0 963.7 0.2 96
2020-01-11 22:00:00 1.2 4 Nordeste 6 Este 0 963.7 0.5 94
2020-01-11 21:00:00 1.9 4 Nordeste 6 Sudoeste 0 963.7 0.9 90
2020-01-11 20:00:00 3.2 4 Sudoeste 6 Sudoeste 0 963.5 0.9 89
2020-01-11 19:00:00 3.8 2 Sudoeste 8 Oeste 0 963.2 0.5 86
2020-01-11 18:00:00 5.6 3 Sudoeste 13 Noroeste 0 962.8 -0.1 78
2020-01-11 17:00:00 7.7 6 Oeste 18 Oeste 0 962.6 -0.9 71
2020-01-11 16:00:00 8.2 8 Oeste 20 Oeste 0 962.7 -1.6 66
2020-01-11 15:00:00 8.4 7 Oeste 19 Oeste 0 962.9 -2.1 66
2020-01-11 14:00:00 7.3 8 Oeste 17 Oeste 0 963.5 -1.6 74
2020-01-11 13:00:00 5.5 8 Sudoeste 14 Sudoeste 0 964.3 -0.4 78
2020-01-11 12:00:00 4.1 4 Sudoeste 10 Oeste 0 965 1 84
2020-01-11 11:00:00 2.3 4 Sudeste 6 Sudeste 0 965.1 1.1 94
2020-01-11 10:00:00 0.6 2 Este 5 Este 0 964.7 0.9 100
2020-01-11 09:00:00 -1.6 0 Calma 6 Este 0 964 0.9 98
2020-01-11 08:00:00 -1.5 3 Este 8 Sudeste 0 964 0.8 96
2020-01-11 07:00:00 -1 3 Sudeste 8 Este 0 963.8 0.7 95
2020-01-11 06:00:00 0.7 5 Noroeste 11 Oeste 0 963.1 0.1 92
2020-01-11 05:00:00 1 4 Noroeste 11 Noroeste 0 963.2 0.5 90
2020-01-11 04:00:00 1 5 Noroeste 10 Noroeste 0 963.1 0.4 92
2020-01-11 03:00:00 1.5 5 Oeste 12 Noroeste 0 963 0.1 92
2020-01-11 02:00:00 2.4 5 Noroeste 11 Noroeste 0 962.7 0.4 90
2020-01-11 01:00:00 2.8 5 Noroeste 10 Noroeste 0 962.7 -0.1 90
2020-01-11 00:00:00 2.3 5 Oeste 14 Oeste 0 962.9 0.6 97
2020-01-10 23:00:00 2.4 6 Sudeste 7 Sudeste 0 962.3 0.3 97
2020-01-10 22:00:00 3.3 2 Sudeste 6 Este 0 962.8 1.3 98
2020-01-10 21:00:00 3.7 5 Sudeste 8 Oeste 0 962.3 1.5 97
2020-01-10 20:00:00 4.6 3 Sudeste 7 Este 0 962 1.7 96
2020-01-10 19:00:00 5.4 7 Este 10 Este 0 961.5 1.6 95
2020-01-10 18:00:00 6.6 8 Este 17 Este 0 960.8 1.1 91
2020-01-10 17:00:00 8.8 10 Este 19 Norte 0 960.3 0.5 84
2020-01-10 16:00:00 10.8 9 Oeste 22 Noroeste 0 959.9 -0.3 60
2020-01-10 15:00:00 11.5 8 Oeste 20 Sudoeste 0 959.7 -1 61
2020-01-10 14:00:00 11 7 Oeste 21 Oeste 0 959.8 -1.1 62
2020-01-10 13:00:00 9.6 7 Oeste 19 Oeste 0 960.2 0 72
2020-01-10 12:00:00 6.3 6 Oeste 11 Oeste 0 960.7 1 93
2020-01-10 11:00:00 3.2 6 Este 16 Este 0 960.9 2.1 100
2020-01-10 10:00:00 2.7 12 Sudeste 19 Este 0 960.2 2.2 100
2020-01-10 09:00:00 1.8 10 Este 18 Norte 0 959.7 2.4 100
2020-01-10 08:00:00 4.5 5 Este 26 Noroeste 0 958.8 1.7 83
2020-01-10 07:00:00 4.7 8 Oeste 18 Oeste 0 958 0.3 85
2020-01-10 06:00:00 4.5 8 Oeste 15 Noroeste 0 957.3 -0.5 92
2020-01-10 05:00:00 3.2 4 Oeste 16 Oeste 0 957.1 -0.6 100
2020-01-10 04:00:00 3.1 8 Sudoeste 15 Sudoeste 0 957.7 -0.8 100
2020-01-10 03:00:00 3.1 5 Oeste 15 Sudoeste 0 957.8 -0.4 100
2020-01-10 02:00:00 3.3 5 Oeste 15 Noroeste 0 957.7 -0.6 100
2020-01-10 01:00:00 3.6 6 Oeste 10 Oeste 0 958.5 0.1 100
2020-01-10 00:00:00 4.1 5 Nordeste 9 Noroeste 0 958.2 -0.5 100
2020-01-09 23:00:00 3.5 2 Norte 12 Noroeste 0 958.3 -0.5 100
2020-01-09 22:00:00 3.2 6 Noroeste 12 Noroeste 0 958.4 -0.3 100
2020-01-09 21:00:00 3.2 4 Noroeste 12 Noroeste 0 958.7 0.1 100
2020-01-09 20:00:00 3 6 Noroeste 11 Este 0 958.8 0 100
2020-01-09 19:00:00 5.9 2 Nordeste 22 Este 0 958.7 0.4 99
2020-01-09 18:00:00 5.6 9 Este 15 Este 0 958.6 -0.2 100
2020-01-09 17:00:00 6 9 Este 22 Sudeste 0 958.8 -1 100
2020-01-09 16:00:00 6.3 18 Sudeste 23 Sudeste 0 958.3 -2.6 98
2020-01-09 15:00:00 8.7 16 Sudeste 24 Sudeste 0 958.8 -2.7 91
2020-01-09 14:00:00 5.6 3 Sudeste 11 Oeste 0 959.8 -2 99
2020-01-09 13:00:00 4.7 5 Oeste 14 Sudeste 0 960.9 -0.8 92
2020-01-09 12:00:00 5.6 3 Sudoeste 14 Sudeste 0 961.5 0 95
2020-01-09 11:00:00 5.3 4 Este 10 Sudeste 0 961.8 0.4 96
2020-01-09 10:00:00 2.3 2 Nordeste 9 Oeste 0 961.7 0.1 100
2020-01-09 09:00:00 0.5 3 Noroeste 8 Noroeste 0 961.5 -0.5 96
2020-01-09 08:00:00 3.3 4 Este 9 Este 0 961.4 -1 95
2020-01-09 07:00:00 3.6 8 Este 12 Este 0 961.6 -1.2 95
2020-01-09 06:00:00 3.6 7 Nordeste 10 Nordeste 0 962 -1.2 99
2020-01-09 05:00:00 3.6 3 Nordeste 10 Este 0 962.4 -0.9 97
2020-01-09 04:00:00 3.8 6 Este 12 Este 0 962.8 -0.6 96
2020-01-09 03:00:00 3.9 6 Este 12 Este 0 963.2 -0.6 97
2020-01-09 02:00:00 3.4 10 Este 13 Este 0 963.3 -1 97
2020-01-09 01:00:00 3.5 10 Este 13 Este 0 963.4 -0.9 99
2020-01-09 00:00:00 4.1 12 Este 13 Este 0 963.8 -0.6 98
2020-01-08 23:00:00 4.6 7 Este 9 Este 0 964.3 -0.3 98
2020-01-08 22:00:00 4.6 7 Este 9 Este 0 964.3 -0.1 99
2020-01-08 21:00:00 4.7 3 Nordeste 11 Este 0 964.4 -0.1 97
2020-01-08 20:00:00 4.2 5 Nordeste 10 Este 0 964.6 0.3 97
2020-01-08 19:00:00 4.5 8 Este 10 Este 0 964.4 0.4 100
2020-01-08 18:00:00 4.5 7 Este 12 Sudeste 0 964.5 0.6 100
2020-01-08 17:00:00 6.6 8 Sudeste 23 Este 0 964.3 0 95
2020-01-08 16:00:00 6.7 12 Sudeste 19 Sudeste 0 964 -1.1 97
2020-01-08 15:00:00 5.8 4 Sudeste 10 Sudeste 0 963.9 -1.8 98
2020-01-08 14:00:00 4.5 5 Sudeste 13 Sudeste 0 964.3 -1.1 100
2020-01-08 13:00:00 3.3 4 Sudoeste 9 Sudeste 0 965.1 0.2 100
2020-01-08 12:00:00 1.8 3 Sudeste 8 Sudeste 0 965.7 1.5 100
2020-01-08 11:00:00 0.4 5 Sudeste 12 Este 0 965.4 2.1 100
2020-01-08 10:00:00 -0.3 10 Este 17 Sudeste 0 964.9 1.9 100
2020-01-08 09:00:00 -0.4 8 Este 16 Sudeste 0 964.2 1.3 100
2020-01-08 08:00:00 -0.7 8 Este 12 Sudeste 0 963.3 0.7 100
2020-01-08 07:00:00 -0.7 7 Este 11 Este 0 963 0.2 100
2020-01-08 06:00:00 -0.6 5 Este 9 Sudeste 0 962.9 0 100
2020-01-08 05:00:00 -0.2 4 Este 8 Este 0 962.6 -0.3 100
2020-01-08 04:00:00 0.2 0 Calma 5 Este 0 962.8 -0.1 100
2020-01-08 03:00:00 0.5 0 Calma 5 Este 0 962.9 -0.3 100
2020-01-08 02:00:00 0.5 3 Este 6 Sudeste 0 962.9 -0.5 100
2020-01-08 01:00:00 0.7 2 Norte 6 Norte 0 962.9 -0.8 100
2020-01-08 00:00:00 0.7 2 Nordeste 5 Norte 0 963.2 -0.4 100
2020-01-07 23:00:00 0.9 0 Calma 8 Este 0 963.4 -0.2 100
2020-01-07 22:00:00 1.1 6 Sudeste 12 Sudeste 0 963.7 0.6 100
2020-01-07 21:00:00 1.2 8 Sudeste 15 Este 0 963.6 0.6 100
2020-01-07 20:00:00 1.4 6 Sudeste 12 Este 0 963.6 0.4 100
2020-01-07 19:00:00 1.6 3 Sudeste 9 Este 0 963.1 -0.2 100
2020-01-07 18:00:00 1.9 2 Este 8 Sudeste 0 963 -0.4 100
2020-01-07 17:00:00 2.2 3 Sudeste 10 Este 0 963.2 -0.6 100
2020-01-07 16:00:00 2.2 3 Sur 8 Este 0 963.3 -1.5 100
2020-01-07 15:00:00 1.8 3 Este 8 Este 0 963.4 -2.3 100
2020-01-07 14:00:00 1.6 4 Noroeste 9 Noroeste 0 963.8 -2 100
2020-01-07 13:00:00 1.7 3 Sudoeste 10 Oeste 0 964.8 -1.1 100
2020-01-07 12:00:00 1.6 2 Sudeste 6 Sudeste 0 965.7 0.2 100
2020-01-07 11:00:00 1.3 4 Sudeste 9 Nordeste 0 965.8 1.1 100
2020-01-07 10:00:00 1 2 Sur 8 Sudeste 0 965.9 1.2 100
2020-01-07 09:00:00 0.7 2 Oeste 6 Oeste 0 965.5 1 100
2020-01-07 08:00:00 0.9 2 Sudeste 5 Sur 0 964.7 0 100
2020-01-07 07:00:00 1 3 Oeste 8 Este 0 964.7 -0.3 100
2020-01-07 06:00:00 1.5 3 Este 10 Este 0 964.5 -0.4 100
2020-01-07 05:00:00 1 3 Nordeste 9 Nordeste 0 964.7 -0.1 100
2020-01-07 04:00:00 0.7 0 Calma 5 Oeste 0 965 0.4 100
2020-01-07 03:00:00 0.5 2 Sudoeste 9 Oeste 0 964.9 0.4 100
2020-01-07 02:00:00 0.4 4 Sudoeste 9 Oeste 0 964.8 0.3 100
2020-01-07 01:00:00 0.5 4 Sudoeste 7 Noroeste 0 964.6 0.5 100
2020-01-07 00:00:00 0.5 3 Noroeste 11 Oeste 0 964.5 0.8 100
2020-01-06 23:00:00 0.7 2 Oeste 8 Norte 0 964.5 0.7 100
2020-01-06 22:00:00 0.9 4 Sudoeste 9 Sudoeste 0 964.1 1 100
2020-01-06 21:00:00 1.1 3 Oeste 10 Noroeste 0 963.7 1.2 100
2020-01-06 20:00:00 1.4 6 Oeste 13 Noroeste 0 963.8 1.5 100
2020-01-06 19:00:00 2.4 4 Noroeste 12 Oeste 0 963.1 0.9 100
2020-01-06 18:00:00 3.1 5 Noroeste 14 Noroeste 0 962.5 0.5 100
2020-01-06 17:00:00 3.8 6 Oeste 15 Oeste 0 962.3 -0.2 100
2020-01-06 16:00:00 4.6 5 Oeste 12 Oeste 0 962.2 -0.9 100
2020-01-06 15:00:00 4.6 5 Oeste 13 Oeste 0 962 -1.9 100
2020-01-06 14:00:00 4.2 6 Oeste 13 Oeste 0 962.5 -1.5 100
2020-01-06 13:00:00 3.5 8 Oeste 13 Oeste 0 963.1 -0.7 100
2020-01-06 12:00:00 3.1 8 Oeste 12 Oeste 0 963.9 0.3 100
2020-01-06 11:00:00 2.5 5 Noroeste 8 Noroeste 0 964 1 100
2020-01-06 10:00:00 3.2 3 Sudeste 12 Este 0 963.8 0.9 100